Main page
METAR-TAF:

METAR-TAF

Airports :

Kärdla Airport

Kärdla, Estonia

latitude: 58-59N, longitude: 022-49E, elevation: 5 m

Current weather observation

The report was made 11 hours and 46 minutes ago, at 15:50 UTC
Wind 6 kt from the South, varying between South/Southeast and Southwest
Temperature 3°C
Humidity 81%
Pressure 1012 hPa
Visibility 10 km or more
Overcast at a height of 1900 ft

METAR: EEKA 201550Z 19006KT 150V230 9999 OVC019 03/00 Q1012

Time: 05:36 (03:36 UTC)

Forecast

The report was made 14 hours and 36 minutes ago, at 13:00 UTC
Forecast valid from 20 at 14 UTC to 20 at 20 UTC
Wind 5 kt from the Southwest
Visibility 10 km or more
Broken clouds at a height of 1500 ft
Becoming
from 20 at 18 UTC to 20 at 20 UTC
Wind 15 kt from the South/Southwest
Broken clouds at a height of 700 ft
Overcast at a height of 1000 ft

TAF: EEKA 201300Z 2014/2020 23005KT 9999 BKN015 BECMG 2018/2020 20015KT BKN007 OVC010

Weather observations and forecasts of more than 4000 airports (METAR and TAF reports).

The available stations are represented by yellow and red dots on the map.

Hover mouse over dot to see the name of the station.

Then click to see weather observations and forecasts.

To change the map : click on the green buttons with a black cross to zoom in, on the green button with a dash to zoom out, or on the green arrows for adjacent maps.


METAR-TAF: